sensor_id;sensor_type;location;lat;lon;timestamp;pressure;altitude;pressure_sealevel;temperature;humidity
66547;BME280;53400;50.364;14.874;2023-01-30T00:00:50;98864.97;;;-4.06;91.67
66547;BME280;53400;50.364;14.874;2023-01-30T00:03:23;98867.59;;;-4.06;91.99
66547;BME280;53400;50.364;14.874;2023-01-30T00:05:49;98858.88;;;-4.25;92.68
66547;BME280;53400;50.364;14.874;2023-01-30T00:08:16;98859.97;;;-4.27;92.98
66547;BME280;53400;50.364;14.874;2023-01-30T00:10:42;98863.81;;;-3.94;92.17
66547;BME280;53400;50.364;14.874;2023-01-30T00:13:09;98865.59;;;-3.95;92.10
66547;BME280;53400;50.364;14.874;2023-01-30T00:15:36;98862.56;;;-3.72;91.29
66547;BME280;53400;50.364;14.874;2023-01-30T00:18:03;98858.25;;;-3.63;90.54
66547;BME280;53400;50.364;14.874;2023-01-30T00:20:30;98854.16;;;-3.94;91.18
66547;BME280;53400;50.364;14.874;2023-01-30T00:22:56;98847.06;;;-4.01;91.27
66547;BME280;53400;50.364;14.874;2023-01-30T00:25:23;98835.41;;;-3.89;92.20
66547;BME280;53400;50.364;14.874;2023-01-30T00:27:49;98824.69;;;-4.13;93.03
66547;BME280;53400;50.364;14.874;2023-01-30T00:30:15;98827.06;;;-3.93;92.46
66547;BME280;53400;50.364;14.874;2023-01-30T00:32:41;98823.03;;;-4.15;93.35
66547;BME280;53400;50.364;14.874;2023-01-30T00:35:07;98824.47;;;-4.30;93.70
66547;BME280;53400;50.364;14.874;2023-01-30T00:37:35;98814.59;;;-4.08;93.99
66547;BME280;53400;50.364;14.874;2023-01-30T00:40:01;98809.25;;;-3.89;92.35
66547;BME280;53400;50.364;14.874;2023-01-30T00:42:27;98796.13;;;-4.25;92.96
66547;BME280;53400;50.364;14.874;2023-01-30T00:45:11;98802.31;;;-4.08;93.83
66547;BME280;53400;50.364;14.874;2023-01-30T00:47:56;98803.31;;;-4.09;93.04
66547;BME280;53400;50.364;14.874;2023-01-30T00:50:23;98791.03;;;-4.08;93.68
66547;BME280;53400;50.364;14.874;2023-01-30T00:52:50;98780.28;;;-4.05;93.49
66547;BME280;53400;50.364;14.874;2023-01-30T00:55:16;98772.84;;;-4.00;92.91
66547;BME280;53400;50.364;14.874;2023-01-30T00:57:43;98780.59;;;-4.08;93.63
66547;BME280;53400;50.364;14.874;2023-01-30T01:00:10;98770.91;;;-3.80;92.79
66547;BME280;53400;50.364;14.874;2023-01-30T01:02:36;98774.34;;;-3.80;92.58
66547;BME280;53400;50.364;14.874;2023-01-30T01:05:02;98764.91;;;-3.73;92.44
66547;BME280;53400;50.364;14.874;2023-01-30T01:07:28;98769.03;;;-3.88;92.55
66547;BME280;53400;50.364;14.874;2023-01-30T01:09:55;98768.13;;;-3.79;92.83
66547;BME280;53400;50.364;14.874;2023-01-30T01:12:21;98759.88;;;-3.84;92.83
66547;BME280;53400;50.364;14.874;2023-01-30T01:14:47;98760.78;;;-3.75;92.85
66547;BME280;53400;50.364;14.874;2023-01-30T01:17:13;98743.28;;;-3.75;93.35
66547;BME280;53400;50.364;14.874;2023-01-30T01:19:39;98744.13;;;-3.74;92.91
66547;BME280;53400;50.364;14.874;2023-01-30T01:22:05;98739.56;;;-3.72;92.73
66547;BME280;53400;50.364;14.874;2023-01-30T01:24:31;98725.47;;;-3.53;92.24
66547;BME280;53400;50.364;14.874;2023-01-30T01:26:58;98734.63;;;-3.75;93.17
66547;BME280;53400;50.364;14.874;2023-01-30T01:29:24;98741.06;;;-3.70;93.55
66547;BME280;53400;50.364;14.874;2023-01-30T01:31:50;98731.59;;;-3.44;92.01
66547;BME280;53400;50.364;14.874;2023-01-30T01:34:16;98722.44;;;-3.66;92.56
66547;BME280;53400;50.364;14.874;2023-01-30T01:36:42;98724.53;;;-3.70;92.84
66547;BME280;53400;50.364;14.874;2023-01-30T01:39:07;98722.94;;;-3.63;92.52
66547;BME280;53400;50.364;14.874;2023-01-30T01:41:33;98722.34;;;-3.57;92.49
66547;BME280;53400;50.364;14.874;2023-01-30T01:44:03;98725.13;;;-3.58;93.20
66547;BME280;53400;50.364;14.874;2023-01-30T01:46:32;98729.91;;;-3.72;93.64
66547;BME280;53400;50.364;14.874;2023-01-30T01:49:00;98737.34;;;-3.41;93.05
66547;BME280;53400;50.364;14.874;2023-01-30T01:51:29;98732.75;;;-3.65;93.62
66547;BME280;53400;50.364;14.874;2023-01-30T01:53:59;98732.16;;;-3.77;94.68
66547;BME280;53400;50.364;14.874;2023-01-30T01:56:28;98719.28;;;-3.52;94.07
66547;BME280;53400;50.364;14.874;2023-01-30T01:58:58;98720.06;;;-3.34;93.06
66547;BME280;53400;50.364;14.874;2023-01-30T02:01:28;98715.16;;;-3.29;92.72
66547;BME280;53400;50.364;14.874;2023-01-30T02:03:58;98699.50;;;-3.20;92.66
66547;BME280;53400;50.364;14.874;2023-01-30T02:06:27;98705.66;;;-3.30;93.43
66547;BME280;53400;50.364;14.874;2023-01-30T02:08:56;98691.69;;;-3.12;92.45
66547;BME280;53400;50.364;14.874;2023-01-30T02:11:28;98682.91;;;-3.29;92.92
66547;BME280;53400;50.364;14.874;2023-01-30T02:13:56;98686.09;;;-3.17;92.75
66547;BME280;53400;50.364;14.874;2023-01-30T02:16:22;98672.38;;;-3.63;94.34
66547;BME280;53400;50.364;14.874;2023-01-30T02:18:49;98662.88;;;-3.38;94.93
66547;BME280;53400;50.364;14.874;2023-01-30T02:21:41;98656.88;;;-3.31;94.67
66547;BME280;53400;50.364;14.874;2023-01-30T02:24:22;98660.72;;;-3.17;93.67
66547;BME280;53400;50.364;14.874;2023-01-30T02:27:27;98645.06;;;-3.01;93.35
66547;BME280;53400;50.364;14.874;2023-01-30T02:30:19;98630.94;;;-3.08;93.27
66547;BME280;53400;50.364;14.874;2023-01-30T02:32:59;98630.13;;;-3.08;93.89
66547;BME280;53400;50.364;14.874;2023-01-30T02:35:31;98607.19;;;-3.14;94.40
66547;BME280;53400;50.364;14.874;2023-01-30T02:38:11;98605.56;;;-3.15;94.50
66547;BME280;53400;50.364;14.874;2023-01-30T02:40:48;98605.88;;;-3.18;94.65
66547;BME280;53400;50.364;14.874;2023-01-30T02:43:25;98615.72;;;-3.12;94.43
66547;BME280;53400;50.364;14.874;2023-01-30T02:45:56;98613.38;;;-3.24;95.14
66547;BME280;53400;50.364;14.874;2023-01-30T02:48:29;98603.47;;;-2.95;94.50
66547;BME280;53400;50.364;14.874;2023-01-30T02:51:03;98599.19;;;-3.13;94.96
66547;BME280;53400;50.364;14.874;2023-01-30T02:53:31;98565.97;;;-3.04;94.33
66547;BME280;53400;50.364;14.874;2023-01-30T02:55:58;98576.97;;;-2.92;93.65
66547;BME280;53400;50.364;14.874;2023-01-30T02:58:27;98568.59;;;-2.96;93.11
66547;BME280;53400;50.364;14.874;2023-01-30T03:01:14;98560.28;;;-2.91;93.21
66547;BME280;53400;50.364;14.874;2023-01-30T03:04:00;98555.34;;;-2.86;93.21
66547;BME280;53400;50.364;14.874;2023-01-30T03:06:40;98554.22;;;-2.84;93.39
66547;BME280;53400;50.364;14.874;2023-01-30T03:09:14;98536.19;;;-2.87;93.43
66547;BME280;53400;50.364;14.874;2023-01-30T03:11:46;98536.19;;;-2.95;93.42
66547;BME280;53400;50.364;14.874;2023-01-30T03:14:20;98532.75;;;-2.71;93.10
66547;BME280;53400;50.364;14.874;2023-01-30T03:16:51;98520.28;;;-2.93;93.65
66547;BME280;53400;50.364;14.874;2023-01-30T03:19:19;98520.63;;;-2.88;93.91
66547;BME280;53400;50.364;14.874;2023-01-30T03:21:45;98529.78;;;-2.92;94.54
66547;BME280;53400;50.364;14.874;2023-01-30T03:24:12;98526.03;;;-2.90;94.51
66547;BME280;53400;50.364;14.874;2023-01-30T03:26:43;98548.59;;;-3.05;95.80
66547;BME280;53400;50.364;14.874;2023-01-30T03:29:10;98565.78;;;-3.11;96.08
66547;BME280;53400;50.364;14.874;2023-01-30T03:31:35;98564.00;;;-3.10;95.91
66547;BME280;53400;50.364;14.874;2023-01-30T03:34:01;98570.50;;;-3.14;96.03
66547;BME280;53400;50.364;14.874;2023-01-30T03:36:28;98568.06;;;-3.08;95.78
66547;BME280;53400;50.364;14.874;2023-01-30T03:38:54;98566.97;;;-2.97;95.11
66547;BME280;53400;50.364;14.874;2023-01-30T03:41:20;98565.16;;;-2.96;95.61
66547;BME280;53400;50.364;14.874;2023-01-30T03:43:46;98552.56;;;-2.93;95.29
66547;BME280;53400;50.364;14.874;2023-01-30T03:46:12;98541.63;;;-2.72;93.94
66547;BME280;53400;50.364;14.874;2023-01-30T03:48:38;98532.28;;;-2.66;93.72
66547;BME280;53400;50.364;14.874;2023-01-30T03:51:04;98522.47;;;-2.64;92.61
66547;BME280;53400;50.364;14.874;2023-01-30T03:53:31;98507.91;;;-2.59;92.34
66547;BME280;53400;50.364;14.874;2023-01-30T03:55:57;98483.44;;;-2.59;91.76
66547;BME280;53400;50.364;14.874;2023-01-30T03:58:23;98476.25;;;-2.57;92.36
66547;BME280;53400;50.364;14.874;2023-01-30T04:00:49;98470.34;;;-2.43;91.51
66547;BME280;53400;50.364;14.874;2023-01-30T04:03:15;98462.34;;;-2.58;91.95
66547;BME280;53400;50.364;14.874;2023-01-30T04:05:41;98469.06;;;-2.55;91.88
66547;BME280;53400;50.364;14.874;2023-01-30T04:08:07;98459.22;;;-2.69;93.13
66547;BME280;53400;50.364;14.874;2023-01-30T04:10:34;98453.63;;;-2.50;92.78
66547;BME280;53400;50.364;14.874;2023-01-30T04:13:00;98461.34;;;-2.65;92.46
66547;BME280;53400;50.364;14.874;2023-01-30T04:15:26;98438.56;;;-2.72;92.20
66547;BME280;53400;50.364;14.874;2023-01-30T04:17:52;98431.72;;;-2.73;92.76
66547;BME280;53400;50.364;14.874;2023-01-30T04:20:18;98417.91;;;-2.51;92.07
66547;BME280;53400;50.364;14.874;2023-01-30T04:22:45;98402.84;;;-2.49;91.66
66547;BME280;53400;50.364;14.874;2023-01-30T04:25:11;98388.72;;;-2.56;90.85
66547;BME280;53400;50.364;14.874;2023-01-30T04:27:38;98387.91;;;-2.48;90.98
66547;BME280;53400;50.364;14.874;2023-01-30T04:30:05;98382.81;;;-2.42;91.19
66547;BME280;53400;50.364;14.874;2023-01-30T04:32:31;98368.38;;;-2.38;90.93
66547;BME280;53400;50.364;14.874;2023-01-30T04:34:57;98371.84;;;-2.37;91.35
66547;BME280;53400;50.364;14.874;2023-01-30T04:37:23;98368.19;;;-1.89;96.45
66547;BME280;53400;50.364;14.874;2023-01-30T04:39:49;98361.72;;;-2.09;90.37
66547;BME280;53400;50.364;14.874;2023-01-30T04:42:15;98357.97;;;-2.15;89.82
66547;BME280;53400;50.364;14.874;2023-01-30T04:44:42;98350.75;;;-2.13;89.76
66547;BME280;53400;50.364;14.874;2023-01-30T04:47:08;98368.59;;;-2.08;89.90
66547;BME280;53400;50.364;14.874;2023-01-30T04:49:34;98382.16;;;-1.96;89.52
66547;BME280;53400;50.364;14.874;2023-01-30T04:52:00;98378.84;;;-1.90;90.17
66547;BME280;53400;50.364;14.874;2023-01-30T04:54:26;98387.88;;;-1.93;89.26
66547;BME280;53400;50.364;14.874;2023-01-30T04:56:52;98383.34;;;-2.07;89.95
66547;BME280;53400;50.364;14.874;2023-01-30T04:59:17;98386.63;;;-2.05;90.75
66547;BME280;53400;50.364;14.874;2023-01-30T05:01:45;98391.56;;;-2.10;90.54
66547;BME280;53400;50.364;14.874;2023-01-30T05:04:10;98400.75;;;-2.14;90.75
66547;BME280;53400;50.364;14.874;2023-01-30T05:06:36;98407.47;;;-2.12;90.78
66547;BME280;53400;50.364;14.874;2023-01-30T05:09:02;98399.63;;;-2.12;90.06
66547;BME280;53400;50.364;14.874;2023-01-30T05:11:29;98391.94;;;-2.21;90.88
66547;BME280;53400;50.364;14.874;2023-01-30T05:13:55;98384.69;;;-2.11;90.95
66547;BME280;53400;50.364;14.874;2023-01-30T05:16:22;98384.34;;;-2.08;90.98
66547;BME280;53400;50.364;14.874;2023-01-30T05:18:49;98385.63;;;-2.04;90.91
66547;BME280;53400;50.364;14.874;2023-01-30T05:21:16;98356.06;;;-1.98;91.07
66547;BME280;53400;50.364;14.874;2023-01-30T05:23:42;98364.59;;;-1.96;89.79
66547;BME280;53400;50.364;14.874;2023-01-30T05:26:10;98357.53;;;-1.95;90.40
66547;BME280;53400;50.364;14.874;2023-01-30T05:28:36;98352.41;;;-2.20;91.18
66547;BME280;53400;50.364;14.874;2023-01-30T05:31:03;98348.41;;;-2.08;91.82
66547;BME280;53400;50.364;14.874;2023-01-30T05:33:29;98338.94;;;-2.09;91.48
66547;BME280;53400;50.364;14.874;2023-01-30T05:35:57;98343.16;;;-2.08;91.63
66547;BME280;53400;50.364;14.874;2023-01-30T05:38:24;98331.50;;;-1.97;91.67
66547;BME280;53400;50.364;14.874;2023-01-30T05:40:57;98324.22;;;-1.87;91.43
66547;BME280;53400;50.364;14.874;2023-01-30T05:43:23;98327.53;;;-1.93;91.09
66547;BME280;53400;50.364;14.874;2023-01-30T05:45:51;98308.22;;;-2.00;92.08
66547;BME280;53400;50.364;14.874;2023-01-30T05:48:17;98313.72;;;-1.87;91.71
66547;BME280;53400;50.364;14.874;2023-01-30T05:50:43;98299.63;;;-1.86;92.05
66547;BME280;53400;50.364;14.874;2023-01-30T05:53:10;98296.75;;;-1.76;91.71
66547;BME280;53400;50.364;14.874;2023-01-30T05:55:36;98296.75;;;-1.76;91.94
66547;BME280;53400;50.364;14.874;2023-01-30T05:58:02;98279.66;;;-1.72;92.14
66547;BME280;53400;50.364;14.874;2023-01-30T06:00:28;98272.09;;;-1.67;91.72
66547;BME280;53400;50.364;14.874;2023-01-30T06:02:56;98258.91;;;-1.44;93.24
66547;BME280;53400;50.364;14.874;2023-01-30T06:05:22;98260.78;;;-1.52;91.35
66547;BME280;53400;50.364;14.874;2023-01-30T06:07:48;98260.56;;;-1.66;92.11
66547;BME280;53400;50.364;14.874;2023-01-30T06:10:16;98255.22;;;-1.72;92.46
66547;BME280;53400;50.364;14.874;2023-01-30T06:12:42;98241.72;;;-1.69;92.30
66547;BME280;53400;50.364;14.874;2023-01-30T06:15:09;98242.66;;;-1.62;92.56
66547;BME280;53400;50.364;14.874;2023-01-30T06:17:35;98253.16;;;-1.62;92.87
66547;BME280;53400;50.364;14.874;2023-01-30T06:20:01;98239.22;;;-1.63;92.98
66547;BME280;53400;50.364;14.874;2023-01-30T06:22:27;98235.88;;;-1.56;92.77
66547;BME280;53400;50.364;14.874;2023-01-30T06:24:53;98237.00;;;-1.51;93.02
66547;BME280;53400;50.364;14.874;2023-01-30T06:27:23;98230.03;;;-1.44;92.82
66547;BME280;53400;50.364;14.874;2023-01-30T06:29:49;98229.84;;;-1.42;92.27
66547;BME280;53400;50.364;14.874;2023-01-30T06:32:15;98232.66;;;-1.44;93.04
66547;BME280;53400;50.364;14.874;2023-01-30T06:34:41;98224.00;;;-1.29;92.54
66547;BME280;53400;50.364;14.874;2023-01-30T06:37:06;98224.44;;;-1.26;92.13
66547;BME280;53400;50.364;14.874;2023-01-30T06:39:32;98217.19;;;-1.39;92.52
66547;BME280;53400;50.364;14.874;2023-01-30T06:41:58;98216.00;;;-1.36;93.21
66547;BME280;53400;50.364;14.874;2023-01-30T06:44:25;98201.50;;;-1.32;92.72
66547;BME280;53400;50.364;14.874;2023-01-30T06:46:51;98201.16;;;-1.29;93.45
66547;BME280;53400;50.364;14.874;2023-01-30T06:49:17;98194.44;;;-1.31;93.51
66547;BME280;53400;50.364;14.874;2023-01-30T06:51:43;98192.81;;;-1.32;93.83
66547;BME280;53400;50.364;14.874;2023-01-30T06:54:09;98222.25;;;-1.37;93.92
66547;BME280;53400;50.364;14.874;2023-01-30T06:56:35;98210.53;;;-1.49;94.99
66547;BME280;53400;50.364;14.874;2023-01-30T06:59:01;98212.75;;;-1.38;94.53
66547;BME280;53400;50.364;14.874;2023-01-30T07:01:28;98216.38;;;-1.39;94.84
66547;BME280;53400;50.364;14.874;2023-01-30T07:03:54;98213.19;;;-1.34;94.25
66547;BME280;53400;50.364;14.874;2023-01-30T07:06:20;98219.63;;;-1.37;94.42
66547;BME280;53400;50.364;14.874;2023-01-30T07:08:46;98220.31;;;-1.43;94.77
66547;BME280;53400;50.364;14.874;2023-01-30T07:11:12;98228.22;;;-1.43;95.83
66547;BME280;53400;50.364;14.874;2023-01-30T07:13:38;98218.00;;;-1.38;95.69
66547;BME280;53400;50.364;14.874;2023-01-30T07:16:04;98203.34;;;-1.32;96.27
66547;BME280;53400;50.364;14.874;2023-01-30T07:18:31;98190.47;;;-1.27;96.08
66547;BME280;53400;50.364;14.874;2023-01-30T07:20:57;98198.38;;;-1.27;95.54
66547;BME280;53400;50.364;14.874;2023-01-30T07:23:23;98188.94;;;-1.07;94.54
66547;BME280;53400;50.364;14.874;2023-01-30T07:25:49;98188.94;;;-1.07;95.01
66547;BME280;53400;50.364;14.874;2023-01-30T07:28:15;98189.78;;;-1.06;94.42
66547;BME280;53400;50.364;14.874;2023-01-30T07:30:40;98184.75;;;-1.16;94.72
66547;BME280;53400;50.364;14.874;2023-01-30T07:33:07;98178.34;;;-1.13;95.04
66547;BME280;53400;50.364;14.874;2023-01-30T07:35:35;98173.19;;;-1.22;95.08
66547;BME280;53400;50.364;14.874;2023-01-30T07:38:02;98164.47;;;-1.07;95.04
66547;BME280;53400;50.364;14.874;2023-01-30T07:40:28;98159.47;;;-0.87;94.43
66547;BME280;53400;50.364;14.874;2023-01-30T07:42:56;98156.88;;;-1.02;94.52
66547;BME280;53400;50.364;14.874;2023-01-30T07:45:22;98180.59;;;-0.96;94.49
66547;BME280;53400;50.364;14.874;2023-01-30T07:47:48;98174.63;;;-1.04;95.05
66547;BME280;53400;50.364;14.874;2023-01-30T07:50:15;98149.78;;;-1.02;95.57
66547;BME280;53400;50.364;14.874;2023-01-30T07:52:43;98155.31;;;-0.82;95.03
66547;BME280;53400;50.364;14.874;2023-01-30T07:55:09;98155.56;;;-0.92;95.01
66547;BME280;53400;50.364;14.874;2023-01-30T07:57:35;98155.22;;;-0.88;94.68
66547;BME280;53400;50.364;14.874;2023-01-30T08:00:01;98152.13;;;-0.92;94.98
66547;BME280;53400;50.364;14.874;2023-01-30T08:02:27;98134.91;;;-0.95;95.42
66547;BME280;53400;50.364;14.874;2023-01-30T08:04:53;98147.16;;;-0.87;95.61
66547;BME280;53400;50.364;14.874;2023-01-30T08:07:19;98145.34;;;-0.86;96.28
66547;BME280;53400;50.364;14.874;2023-01-30T08:09:46;98150.59;;;-0.86;96.97
66547;BME280;53400;50.364;14.874;2023-01-30T08:12:12;98147.66;;;-0.77;98.07
66547;BME280;53400;50.364;14.874;2023-01-30T08:14:38;98147.50;;;-0.75;99.22
66547;BME280;53400;50.364;14.874;2023-01-30T08:17:04;98150.88;;;-0.81;100.00
66547;BME280;53400;50.364;14.874;2023-01-30T08:19:30;98159.28;;;-1.01;100.00
66547;BME280;53400;50.364;14.874;2023-01-30T08:21:57;98146.72;;;-0.90;100.00
66547;BME280;53400;50.364;14.874;2023-01-30T08:24:23;98154.66;;;-0.84;100.00
66547;BME280;53400;50.364;14.874;2023-01-30T08:26:51;98150.50;;;-0.93;100.00
66547;BME280;53400;50.364;14.874;2023-01-30T08:29:17;98141.38;;;-0.97;100.00
66547;BME280;53400;50.364;14.874;2023-01-30T08:31:43;98138.84;;;-1.05;100.00
66547;BME280;53400;50.364;14.874;2023-01-30T08:34:09;98134.03;;;-1.02;100.00
66547;BME280;53400;50.364;14.874;2023-01-30T08:36:34;98128.97;;;-1.03;100.00
66547;BME280;53400;50.364;14.874;2023-01-30T08:39:00;98129.78;;;-1.03;100.00
66547;BME280;53400;50.364;14.874;2023-01-30T08:41:26;98124.03;;;-0.92;100.00
66547;BME280;53400;50.364;14.874;2023-01-30T08:43:54;98124.97;;;-0.99;100.00
66547;BME280;53400;50.364;14.874;2023-01-30T08:46:20;98116.56;;;-1.09;100.00
66547;BME280;53400;50.364;14.874;2023-01-30T08:48:46;98108.47;;;-1.08;100.00
66547;BME280;53400;50.364;14.874;2023-01-30T08:51:12;98105.56;;;-1.13;100.00
66547;BME280;53400;50.364;14.874;2023-01-30T08:53:38;98107.75;;;-1.17;100.00
66547;BME280;53400;50.364;14.874;2023-01-30T08:56:04;98089.25;;;-1.08;100.00
66547;BME280;53400;50.364;14.874;2023-01-30T08:58:30;98095.16;;;-1.06;100.00
66547;BME280;53400;50.364;14.874;2023-01-30T09:00:58;98098.03;;;-1.01;100.00
66547;BME280;53400;50.364;14.874;2023-01-30T09:03:24;98090.72;;;-1.06;100.00
66547;BME280;53400;50.364;14.874;2023-01-30T09:05:53;98087.16;;;-0.98;100.00
66547;BME280;53400;50.364;14.874;2023-01-30T09:08:20;98089.16;;;-1.00;100.00
66547;BME280;53400;50.364;14.874;2023-01-30T09:10:46;98085.25;;;-1.04;100.00
66547;BME280;53400;50.364;14.874;2023-01-30T09:13:12;98083.31;;;-0.81;100.00
66547;BME280;53400;50.364;14.874;2023-01-30T09:15:40;98084.13;;;-0.80;100.00
66547;BME280;53400;50.364;14.874;2023-01-30T09:18:08;98088.22;;;-0.78;100.00
66547;BME280;53400;50.364;14.874;2023-01-30T09:20:34;98087.91;;;-0.68;100.00
66547;BME280;53400;50.364;14.874;2023-01-30T09:23:00;98068.41;;;-0.74;100.00
66547;BME280;53400;50.364;14.874;2023-01-30T09:25:26;98074.44;;;-0.58;100.00
66547;BME280;53400;50.364;14.874;2023-01-30T09:27:52;98069.88;;;-0.50;100.00
66547;BME280;53400;50.364;14.874;2023-01-30T09:30:19;98063.25;;;-0.45;100.00
66547;BME280;53400;50.364;14.874;2023-01-30T09:32:44;98056.88;;;-0.36;100.00
66547;BME280;53400;50.364;14.874;2023-01-30T09:35:12;98056.22;;;-0.38;100.00
66547;BME280;53400;50.364;14.874;2023-01-30T09:37:45;98039.47;;;-0.31;100.00
66547;BME280;53400;50.364;14.874;2023-01-30T09:40:13;98053.56;;;-0.17;100.00
66547;BME280;53400;50.364;14.874;2023-01-30T09:42:54;98057.81;;;-0.16;100.00
66547;BME280;53400;50.364;14.874;2023-01-30T09:45:39;98046.81;;;-0.26;100.00
66547;BME280;53400;50.364;14.874;2023-01-30T09:48:14;98046.50;;;-0.16;100.00
66547;BME280;53400;50.364;14.874;2023-01-30T09:50:56;98040.69;;;-0.33;100.00
66547;BME280;53400;50.364;14.874;2023-01-30T09:53:30;98039.00;;;-0.41;100.00
66547;BME280;53400;50.364;14.874;2023-01-30T09:56:01;98038.94;;;-0.48;100.00
66547;BME280;53400;50.364;14.874;2023-01-30T09:58:36;98045.00;;;-0.47;100.00
66547;BME280;53400;50.364;14.874;2023-01-30T10:01:09;98045.59;;;-0.52;100.00
66547;BME280;53400;50.364;14.874;2023-01-30T10:04:01;98038.50;;;-0.51;100.00
66547;BME280;53400;50.364;14.874;2023-01-30T10:06:35;98038.94;;;-0.48;100.00
66547;BME280;53400;50.364;14.874;2023-01-30T10:09:10;98041.94;;;-0.29;100.00
66547;BME280;53400;50.364;14.874;2023-01-30T10:11:49;98036.31;;;-0.26;100.00
66547;BME280;53400;50.364;14.874;2023-01-30T10:14:46;98032.09;;;-0.20;100.00
66547;BME280;53400;50.364;14.874;2023-01-30T10:17:24;98024.00;;;-0.19;100.00
66547;BME280;53400;50.364;14.874;2023-01-30T10:20:02;98018.97;;;-0.14;100.00
66547;BME280;53400;50.364;14.874;2023-01-30T10:22:43;98018.84;;;-0.06;100.00
66547;BME280;53400;50.364;14.874;2023-01-30T10:25:19;98022.97;;;0.04;100.00
66547;BME280;53400;50.364;14.874;2023-01-30T10:27:51;98016.06;;;0.03;100.00
66547;BME280;53400;50.364;14.874;2023-01-30T10:30:19;98017.91;;;0.09;100.00
66547;BME280;53400;50.364;14.874;2023-01-30T10:32:47;97998.31;;;0.18;100.00
66547;BME280;53400;50.364;14.874;2023-01-30T10:35:19;97999.47;;;0.37;100.00
66547;BME280;53400;50.364;14.874;2023-01-30T10:37:52;98002.13;;;0.43;100.00
66547;BME280;53400;50.364;14.874;2023-01-30T10:40:24;98005.59;;;0.51;100.00
66547;BME280;53400;50.364;14.874;2023-01-30T10:42:59;98011.09;;;0.56;100.00
66547;BME280;53400;50.364;14.874;2023-01-30T10:45:33;97983.09;;;0.55;100.00
66547;BME280;53400;50.364;14.874;2023-01-30T10:48:20;97977.16;;;0.39;100.00
66547;BME280;53400;50.364;14.874;2023-01-30T10:50:52;97996.06;;;0.43;100.00
66547;BME280;53400;50.364;14.874;2023-01-30T10:53:27;97988.34;;;0.48;100.00
66547;BME280;53400;50.364;14.874;2023-01-30T10:55:59;97972.94;;;0.45;100.00
66547;BME280;53400;50.364;14.874;2023-01-30T10:58:32;97975.41;;;0.47;100.00
66547;BME280;53400;50.364;14.874;2023-01-30T11:01:06;97966.16;;;0.71;100.00
66547;BME280;53400;50.364;14.874;2023-01-30T11:03:39;97953.84;;;0.91;100.00
66547;BME280;53400;50.364;14.874;2023-01-30T11:06:10;97961.72;;;0.84;100.00
66547;BME280;53400;50.364;14.874;2023-01-30T11:08:38;97972.28;;;0.84;100.00
66547;BME280;53400;50.364;14.874;2023-01-30T11:11:22;97964.38;;;0.84;100.00
66547;BME280;53400;50.364;14.874;2023-01-30T11:13:50;97967.00;;;0.78;100.00
66547;BME280;53400;50.364;14.874;2023-01-30T11:16:25;97971.22;;;0.72;100.00
66547;BME280;53400;50.364;14.874;2023-01-30T11:18:51;97966.34;;;0.69;100.00
66547;BME280;53400;50.364;14.874;2023-01-30T11:21:20;97951.94;;;0.65;100.00
66547;BME280;53400;50.364;14.874;2023-01-30T11:23:48;97961.94;;;0.76;100.00
66547;BME280;53400;50.364;14.874;2023-01-30T11:26:18;97951.38;;;0.76;100.00
66547;BME280;53400;50.364;14.874;2023-01-30T11:28:45;97960.75;;;0.85;100.00
66547;BME280;53400;50.364;14.874;2023-01-30T11:31:17;97961.97;;;0.96;100.00
66547;BME280;53400;50.364;14.874;2023-01-30T11:33:44;97966.25;;;1.10;100.00
66547;BME280;53400;50.364;14.874;2023-01-30T11:36:23;97955.03;;;0.82;100.00
66547;BME280;53400;50.364;14.874;2023-01-30T11:38:57;97958.47;;;0.76;100.00
66547;BME280;53400;50.364;14.874;2023-01-30T11:41:23;97963.19;;;0.94;100.00
66547;BME280;53400;50.364;14.874;2023-01-30T11:43:49;97960.53;;;0.87;100.00
66547;BME280;53400;50.364;14.874;2023-01-30T11:46:17;97955.44;;;0.79;100.00
66547;BME280;53400;50.364;14.874;2023-01-30T11:48:48;97953.03;;;0.90;100.00
66547;BME280;53400;50.364;14.874;2023-01-30T11:51:18;97950.84;;;1.07;100.00
66547;BME280;53400;50.364;14.874;2023-01-30T11:53:50;97943.50;;;0.96;100.00
66547;BME280;53400;50.364;14.874;2023-01-30T11:56:25;97931.09;;;0.77;100.00
66547;BME280;53400;50.364;14.874;2023-01-30T11:58:57;97924.03;;;0.84;100.00
66547;BME280;53400;50.364;14.874;2023-01-30T12:01:26;97930.09;;;0.78;100.00
66547;BME280;53400;50.364;14.874;2023-01-30T12:03:53;97933.53;;;0.72;100.00
66547;BME280;53400;50.364;14.874;2023-01-30T12:06:21;97928.47;;;0.70;100.00
66547;BME280;53400;50.364;14.874;2023-01-30T12:08:50;97919.28;;;0.59;100.00
66547;BME280;53400;50.364;14.874;2023-01-30T12:11:27;97916.31;;;0.82;100.00
66547;BME280;53400;50.364;14.874;2023-01-30T12:13:54;97917.94;;;0.77;100.00
66547;BME280;53400;50.364;14.874;2023-01-30T12:16:25;97924.81;;;0.78;100.00
66547;BME280;53400;50.364;14.874;2023-01-30T12:18:59;97930.41;;;0.48;100.00
66547;BME280;53400;50.364;14.874;2023-01-30T12:21:34;97926.28;;;0.32;100.00
66547;BME280;53400;50.364;14.874;2023-01-30T12:24:09;97935.00;;;0.33;100.00
66547;BME280;53400;50.364;14.874;2023-01-30T12:26:43;97940.78;;;0.56;100.00
66547;BME280;53400;50.364;14.874;2023-01-30T12:29:21;97935.13;;;0.66;100.00
66547;BME280;53400;50.364;14.874;2023-01-30T12:31:56;97927.59;;;0.56;100.00
66547;BME280;53400;50.364;14.874;2023-01-30T12:34:27;97920.72;;;0.62;100.00
66547;BME280;53400;50.364;14.874;2023-01-30T12:36:59;97924.00;;;0.71;100.00
66547;BME280;53400;50.364;14.874;2023-01-30T12:39:40;97931.09;;;0.70;100.00
66547;BME280;53400;50.364;14.874;2023-01-30T12:42:24;97922.34;;;0.69;100.00
66547;BME280;53400;50.364;14.874;2023-01-30T12:45:01;97916.09;;;0.71;100.00
66547;BME280;53400;50.364;14.874;2023-01-30T12:50:29;97917.94;;;0.77;100.00
66547;BME280;53400;50.364;14.874;2023-01-30T12:53:20;97920.97;;;0.80;100.00
66547;BME280;53400;50.364;14.874;2023-01-30T12:55:59;97918.31;;;0.67;100.00
66547;BME280;53400;50.364;14.874;2023-01-30T12:58:37;97915.31;;;0.83;100.00
66547;BME280;53400;50.364;14.874;2023-01-30T13:01:18;97904.53;;;0.85;100.00